Terminal Aerodrome Forecast
Issued by NWS

Home | Current Version | Previous Version | Text Only | Print | Product List | Glossary On
Versions: 1 2 3 4 5 6 7 8 9 10 11 12 13 14 15 16 17 18 19 20
000
FTUS43 KMPX 021400 AAA
TAFRNH
TAF AMD
KRNH 021424Z 0214/0312 00000KT 2SM BR OVC004
     FM021630 00000KT 6SM BR BKN008 OVC012
     FM021900 31003KT 6SM -RA SCT009 OVC013
     FM022100 30006KT 4SM -RA SCT010 OVC015
     FM030000 29005KT P6SM BKN020
     FM030300 28008KT P6SM SCT030=

USA.gov is the U.S. government's official web portal to all federal, state and local government web resources and services.